Time;durP1;ratioP1;P1;durP2;ratioP2;P2;SDS_P1;SDS_P2;PMS_P1;PMS_P2;Temp;Humidity;BMP_temperature;BMP_pressure;BME280_temperature;BME280_humidity;BME280_pressure;Samples;Min_cycle;Max_cycle;Signal;HPM_P1;HPM_P2
2024/04/19 00:00:17;;;;;;;;;4.00;3.00;;;;;-0.06;86.85;99927.77;113098;235;40458;-59
2024/04/19 00:03:19;;;;;;;;;7.00;5.00;;;;;-0.13;86.96;99922.68;112922;232;169789;-57
2024/04/19 00:05:58;;;;;;;;;7.00;5.00;;;;;-0.16;87.20;99919.84;112946;230;40262;-57
2024/04/19 00:08:36;;;;;;;;;7.00;4.00;;;;;-0.15;87.19;99925.77;113021;230;41700;-59
2024/04/19 00:11:16;;;;;;;;;3.00;3.00;;;;;-0.15;87.23;99923.45;112628;232;40070;-59
2024/04/19 00:13:56;;;;;;;;;3.33;3.00;;;;;-0.17;87.38;99926.79;112915;232;40771;-56
2024/04/19 00:16:41;;;;;;;;;5.00;4.00;;;;;-0.20;87.47;99924.91;112707;231;169409;-56
2024/04/19 00:19:23;;;;;;;;;8.00;6.00;;;;;-0.18;87.50;99924.94;112953;232;40314;-61
2024/04/19 00:22:05;;;;;;;;;6.00;4.00;;;;;-0.14;87.67;99921.19;112634;232;168913;-60
2024/04/19 00:24:41;;;;;;;;;7.00;5.00;;;;;-0.11;87.77;99922.30;112580;232;40918;-57
2024/04/19 00:27:20;;;;;;;;;7.00;5.00;;;;;-0.07;87.89;99918.14;112525;231;169284;-57
2024/04/19 00:30:06;;;;;;;;;12.00;8.00;;;;;-0.09;87.96;99917.78;112870;231;41620;-58
2024/04/19 00:32:41;;;;;;;;;6.00;5.00;;;;;-0.09;88.02;99915.59;112949;235;40879;-57
2024/04/19 00:35:19;;;;;;;;;4.00;4.00;;;;;-0.09;88.01;99912.13;112695;233;40588;-58
2024/04/19 00:38:03;;;;;;;;;7.00;4.50;;;;;-0.14;88.14;99912.92;112961;232;41282;-57
2024/04/19 00:40:42;;;;;;;;;5.00;4.00;;;;;-0.13;88.12;99913.15;112542;232;169073;-57
2024/04/19 00:43:20;;;;;;;;;6.00;5.00;;;;;-0.14;88.06;99909.38;112576;232;41207;-60
2024/04/19 00:45:56;;;;;;;;;8.00;4.00;;;;;-0.10;88.25;99912.91;112615;231;169157;-60
2024/04/19 00:48:34;;;;;;;;;5.00;4.00;;;;;-0.07;88.41;99910.88;112942;231;40034;-56
2024/04/19 00:51:11;;;;;;;;;4.00;4.00;;;;;-0.04;88.54;99909.32;112725;232;169364;-57
2024/04/19 00:53:49;;;;;;;;;5.00;3.00;;;;;-0.04;88.56;99906.17;112641;232;42037;-60
2024/04/19 00:56:25;;;;;;;;;3.00;2.00;;;;;-0.01;88.66;99908.56;112614;232;40045;-60
2024/04/19 00:58:59;;;;;;;;;3.00;3.00;;;;;-0.00;88.53;99910.63;112756;231;169122;-60
2024/04/19 01:01:37;;;;;;;;;5.25;4.00;;;;;-0.02;88.60;99906.73;112935;235;41413;-61
2024/04/19 01:04:13;;;;;;;;;4.00;3.00;;;;;-0.08;88.61;99905.82;112576;232;169630;-58
2024/04/19 01:06:49;;;;;;;;;3.00;2.00;;;;;-0.10;88.59;99902.31;112627;236;40478;-58
2024/04/19 01:09:25;;;;;;;;;4.00;3.00;;;;;-0.09;88.57;99905.70;112535;232;169142;-56
2024/04/19 01:12:04;;;;;;;;;4.50;4.00;;;;;-0.11;88.74;99900.59;112862;231;41374;-57
2024/04/19 01:14:49;;;;;;;;;4.00;3.00;;;;;-0.08;88.69;99901.94;112913;232;40386;-59
2024/04/19 01:17:35;;;;;;;;;4.00;4.00;;;;;-0.11;88.73;99895.67;112595;232;40033;-59
2024/04/19 01:20:11;;;;;;;;;6.00;5.00;;;;;-0.12;88.73;99894.84;112641;232;40127;-59
2024/04/19 01:22:47;;;;;;;;;5.00;5.00;;;;;-0.15;88.82;99894.89;112744;235;169206;-59
2024/04/19 01:25:31;;;;;;;;;6.00;5.00;;;;;-0.13;88.90;99889.81;112653;232;40690;-60
2024/04/19 01:28:10;;;;;;;;;6.00;4.00;;;;;-0.10;88.88;99888.68;112473;232;169305;-58
2024/04/19 01:30:49;;;;;;;;;9.00;5.00;;;;;-0.12;88.81;99888.81;112752;232;40652;-60
2024/04/19 01:33:23;;;;;;;;;5.00;4.00;;;;;-0.13;88.92;99889.43;112605;236;169342;-56
2024/04/19 01:35:57;;;;;;;;;4.00;3.25;;;;;-0.14;88.91;99887.75;112570;236;40297;-56
2024/04/19 01:38:35;;;;;;;;;5.00;4.00;;;;;-0.18;88.99;99888.63;112601;232;40892;-56
2024/04/19 01:41:13;;;;;;;;;5.25;5.00;;;;;-0.20;89.05;99887.23;112706;231;168830;-57
2024/04/19 01:43:51;;;;;;;;;5.00;4.00;;;;;-0.21;89.14;99890.34;112904;232;40312;-57
2024/04/19 01:46:34;;;;;;;;;7.00;5.00;;;;;-0.23;89.22;99885.23;112503;235;169309;-56
2024/04/19 01:49:15;;;;;;;;;5.00;3.00;;;;;-0.23;89.23;99884.33;112899;235;41702;-58
2024/04/19 01:51:55;;;;;;;;;4.00;3.00;;;;;-0.30;89.33;99881.61;112629;232;169219;-58
2024/04/19 01:54:31;;;;;;;;;6.50;4.00;;;;;-0.34;89.30;99886.16;112578;233;39959;-58
2024/04/19 01:57:05;;;;;;;;;7.50;5.50;;;;;-0.37;89.33;99885.52;112451;231;169338;-59
2024/04/19 01:59:40;;;;;;;;;3.00;3.00;;;;;-0.38;89.47;99889.20;112586;233;41023;-57
2024/04/19 02:02:20;;;;;;;;;7.00;5.00;;;;;-0.37;89.53;99888.91;112949;232;40697;-57
2024/04/19 02:04:56;;;;;;;;;3.00;2.00;;;;;-0.41;89.52;99889.25;112466;235;169252;-57
2024/04/19 02:07:31;;;;;;;;;7.00;5.00;;;;;-0.46;89.64;99887.75;112632;236;41583;-57
2024/04/19 02:10:09;;;;;;;;;4.00;4.00;;;;;-0.48;89.66;99887.90;112578;231;169094;-59
2024/04/19 02:12:49;;;;;;;;;7.00;4.75;;;;;-0.51;89.68;99884.48;113019;231;41386;-58
2024/04/19 02:15:29;;;;;;;;;5.00;3.00;;;;;-0.52;89.74;99885.14;112675;230;169420;-58
2024/04/19 02:18:07;;;;;;;;;4.00;3.00;;;;;-0.51;89.92;99882.22;112747;232;41285;-60
2024/04/19 02:20:49;;;;;;;;;6.00;5.00;;;;;-0.49;89.95;99882.16;112922;235;41050;-58
2024/04/19 02:23:46;;;;;;;;;8.00;5.00;;;;;-0.51;90.03;99877.08;112482;235;42319;-57
2024/04/19 02:26:21;;;;;;;;;6.00;5.00;;;;;-0.54;90.11;99875.39;112863;232;40128;-56
2024/04/19 02:31:43;;;;;;;;;6.00;5.00;;;;;-0.63;90.13;99870.09;112934;230;41730;-59
2024/04/19 02:34:19;;;;;;;;;8.00;5.00;;;;;-0.65;90.22;99868.35;112578;230;170163;-56
2024/04/19 02:37:00;;;;;;;;;4.00;4.00;;;;;-0.68;90.22;99865.05;112874;232;40560;-55
2024/04/19 02:39:34;;;;;;;;;8.00;5.00;;;;;-0.69;90.30;99862.36;112728;232;169405;-56
2024/04/19 02:42:08;;;;;;;;;4.00;4.00;;;;;-0.69;90.38;99863.69;112789;232;40900;-56
2024/04/19 02:44:42;;;;;;;;;8.00;7.00;;;;;-0.68;90.42;99859.77;112984;235;40546;-58
2024/04/19 02:47:23;;;;;;;;;6.00;4.00;;;;;-0.69;90.45;99855.20;112511;232;170441;-58
2024/04/19 02:49:59;;;;;;;;;8.00;5.00;;;;;-0.67;90.46;99857.36;113029;232;40224;-56
2024/04/19 02:52:39;;;;;;;;;7.00;5.00;;;;;-0.66;90.44;99856.39;112554;232;169119;-57
2024/04/19 02:55:15;;;;;;;;;10.00;7.00;;;;;-0.68;90.44;99856.04;112977;232;40635;-60
2024/04/19 02:57:51;;;;;;;;;8.00;6.00;;;;;-0.68;90.40;99854.46;112713;232;169181;-59
2024/04/19 03:00:35;;;;;;;;;9.25;7.00;;;;;-0.66;90.38;99845.65;112831;232;39873;-58
2024/04/19 03:03:10;;;;;;;;;10.00;7.00;;;;;-0.68;90.44;99846.48;112367;233;169443;-57
2024/04/19 03:05:44;;;;;;;;;9.00;8.00;;;;;-0.67;90.54;99848.49;112665;232;40496;-57
2024/04/19 03:08:23;;;;;;;;;12.00;8.00;;;;;-0.64;90.52;99845.41;112938;235;40332;-55
2024/04/19 03:11:05;;;;;;;;;11.00;9.00;;;;;-0.63;90.59;99839.13;112545;232;169649;-54
2024/04/19 03:13:45;;;;;;;;;9.00;6.00;;;;;-0.60;90.53;99840.34;112520;236;41577;-56
2024/04/19 03:16:25;;;;;;;;;12.00;9.00;;;;;-0.62;90.54;99834.50;112569;232;169340;-55
2024/04/19 03:19:02;;;;;;;;;13.50;10.50;;;;;-0.59;90.64;99832.98;112898;235;41394;-57
2024/04/19 03:21:39;;;;;;;;;14.50;11.00;;;;;-0.59;90.72;99830.71;112776;235;171129;-57
2024/04/19 03:24:23;;;;;;;;;11.00;7.00;;;;;-0.57;90.68;99826.86;112945;231;40072;-58
2024/04/19 03:26:59;;;;;;;;;11.50;9.00;;;;;-0.55;90.67;99826.67;112814;232;169694;-58
2024/04/19 03:29:40;;;;;;;;;13.00;10.00;;;;;-0.53;90.74;99829.12;112652;236;41104;-54
2024/04/19 03:32:16;;;;;;;;;12.00;9.67;;;;;-0.46;90.83;99826.08;112567;232;40452;-53
2024/04/19 03:34:54;;;;;;;;;17.00;13.00;;;;;-0.42;90.93;99823.52;112493;232;169598;-58
2024/04/19 03:37:28;;;;;;;;;19.00;13.00;;;;;-0.33;91.04;99813.36;112595;232;40414;-59
2024/04/19 03:40:07;;;;;;;;;15.50;12.00;;;;;-0.30;91.05;99811.14;112432;236;169839;-58
2024/04/19 03:42:48;;;;;;;;;19.00;13.50;;;;;-0.16;91.14;99810.29;112650;232;41965;-59
2024/04/19 03:48:17;;;;;;;;;21.75;15.00;;;;;0.17;91.38;99804.48;112518;232;40574;-55
2024/04/19 03:50:56;;;;;;;;;22.00;15.00;;;;;0.28;91.40;99801.14;112516;232;40390;-54
2024/04/19 03:53:33;;;;;;;;;16.00;12.00;;;;;0.40;91.58;99804.81;112735;232;39764;-55
2024/04/19 03:56:08;;;;;;;;;18.50;14.50;;;;;0.56;91.60;99812.19;112514;232;40247;-55
2024/04/19 03:58:47;;;;;;;;;22.00;17.00;;;;;0.68;91.76;99807.21;112405;232;169772;-59
2024/04/19 04:01:24;;;;;;;;;22.00;16.00;;;;;0.90;91.74;99808.89;112605;236;40421;-59
2024/04/19 04:04:00;;;;;;;;;18.00;14.50;;;;;1.04;91.73;99807.35;112465;232;169638;-59
2024/04/19 04:06:34;;;;;;;;;29.00;22.00;;;;;1.21;91.66;99806.11;112600;232;40313;-59
2024/04/19 04:09:14;;;;;;;;;23.33;17.00;;;;;1.33;91.69;99810.80;112429;236;170042;-56
2024/04/19 04:11:56;;;;;;;;;27.00;19.33;;;;;1.44;91.56;99811.88;112582;232;39958;-57
2024/04/19 04:14:34;;;;;;;;;22.00;15.50;;;;;1.58;91.56;99810.52;112637;232;41658;-59
2024/04/19 04:17:13;;;;;;;;;25.00;18.00;;;;;1.71;91.84;99811.52;112458;234;169794;-58
2024/04/19 04:19:56;;;;;;;;;27.00;17.00;;;;;2.01;91.97;99807.77;112712;236;41288;-59
2024/04/19 04:22:38;;;;;;;;;27.00;19.00;;;;;2.23;91.71;99807.12;112556;232;169917;-58
2024/04/19 04:25:17;;;;;;;;;27.00;18.67;;;;;2.10;91.48;99807.92;112602;232;40177;-56
2024/04/19 04:27:54;;;;;;;;;24.00;20.00;;;;;2.06;91.22;99802.08;112445;232;169730;-56
2024/04/19 04:30:31;;;;;;;;;24.00;16.00;;;;;2.01;91.22;99804.35;112574;232;41294;-56
2024/04/19 04:33:05;;;;;;;;;25.00;17.00;;;;;1.97;91.23;99804.77;112430;232;169809;-57
2024/04/19 04:35:45;;;;;;;;;19.00;16.00;;;;;1.92;91.41;99803.34;112589;236;40819;-58
2024/04/19 04:38:22;;;;;;;;;26.25;19.00;;;;;1.93;91.40;99804.42;112546;232;41993;-58
2024/04/19 04:41:01;;;;;;;;;22.00;17.50;;;;;1.99;91.18;99801.89;112430;236;169866;-58
2024/04/19 04:43:39;;;;;;;;;30.00;21.00;;;;;1.95;91.27;99801.19;112553;232;41742;-56
2024/04/19 04:46:19;;;;;;;;;23.00;18.00;;;;;2.04;90.88;99797.36;112451;232;169785;-55
2024/04/19 04:48:59;;;;;;;;;22.00;17.00;;;;;2.03;90.57;99793.85;112623;236;40756;-56
2024/04/19 04:51:37;;;;;;;;;24.00;18.00;;;;;2.02;90.47;99790.45;112404;232;169969;-56
2024/04/19 04:54:11;;;;;;;;;27.00;18.00;;;;;2.40;91.15;99790.83;112642;232;40677;-57
2024/04/19 04:56:48;;;;;;;;;25.00;19.00;;;;;4.48;91.94;99788.20;112671;232;40437;-57
2024/04/19 04:59:22;;;;;;;;;36.00;27.00;;;;;5.63;90.37;99784.50;112470;232;169616;-58
2024/04/19 05:02:03;;;;;;;;;40.00;28.00;;;;;6.64;90.19;99775.43;112609;232;39905;-57
2024/04/19 05:04:44;;;;;;;;;38.50;28.00;;;;;7.95;88.85;99770.77;112473;236;169651;-54
2024/04/19 05:07:22;;;;;;;;;36.75;27.25;;;;;7.97;86.81;99766.29;112650;232;39832;-53
2024/04/19 05:10:00;;;;;;;;;34.50;25.00;;;;;7.54;85.26;99756.63;112477;232;169607;-55
2024/04/19 05:12:36;;;;;;;;;33.00;26.00;;;;;7.17;84.59;99763.92;112602;232;39872;-54
2024/04/19 05:15:11;;;;;;;;;31.00;25.00;;;;;7.10;83.93;99757.08;112439;236;169972;-57
2024/04/19 05:17:56;;;;;;;;;34.00;25.50;;;;;6.73;83.19;99754.20;112600;232;40525;-57
2024/04/19 05:20:42;;;;;;;;;34.25;24.00;;;;;6.10;83.10;99753.21;112565;232;41174;-55
2024/04/19 05:23:18;;;;;;;;;25.00;20.00;;;;;5.73;83.11;99758.58;112390;236;169539;-55
2024/04/19 05:25:53;;;;;;;;;28.00;22.00;;;;;5.75;83.59;99760.89;112611;232;39802;-54
2024/04/19 05:28:28;;;;;;;;;27.00;21.00;;;;;6.80;84.32;99755.55;112468;232;169352;-56
2024/04/19 05:31:14;;;;;;;;;30.50;23.00;;;;;8.23;83.54;99753.52;112581;236;39876;-55
2024/04/19 05:33:54;;;;;;;;;29.25;22.75;;;;;9.68;82.04;99750.08;112457;232;170206;-56
2024/04/19 05:36:35;;;;;;;;;32.00;24.00;;;;;9.38;80.20;99749.70;112603;232;40074;-53
2024/04/19 05:39:16;;;;;;;;;31.00;25.00;;;;;8.80;79.60;99747.86;112438;232;169637;-58
2024/04/19 05:42:02;;;;;;;;;28.50;23.00;;;;;8.17;80.21;99745.21;112618;232;40076;-58
2024/04/19 05:44:47;;;;;;;;;24.50;19.00;;;;;7.92;79.51;99742.06;112665;232;39886;-56
2024/04/19 05:47:25;;;;;;;;;26.67;21.33;;;;;7.22;79.39;99740.96;112450;232;169080;-54
2024/04/19 05:49:59;;;;;;;;;27.25;23.00;;;;;6.79;79.37;99745.62;112636;232;41463;-58
2024/04/19 05:52:39;;;;;;;;;26.00;22.00;;;;;6.46;79.41;99741.85;112448;232;169201;-58
2024/04/19 05:55:17;;;;;;;;;29.00;20.67;;;;;6.09;79.78;99741.34;112578;232;41340;-57
2024/04/19 05:57:52;;;;;;;;;29.00;23.00;;;;;5.77;80.59;99738.06;112375;232;169131;-55
2024/04/19 06:00:30;;;;;;;;;28.25;22.00;;;;;5.65;80.73;99738.55;112556;232;41079;-54
2024/04/19 06:03:09;;;;;;;;;21.00;17.00;;;;;5.61;80.61;99737.39;112437;232;170447;-57
2024/04/19 06:05:45;;;;;;;;;21.00;17.00;;;;;5.60;80.96;99740.08;112492;233;40292;-58
2024/04/19 06:08:23;;;;;;;;;26.67;20.00;;;;;5.57;81.78;99737.14;112641;232;42050;-57
2024/04/19 06:11:01;;;;;;;;;22.50;19.00;;;;;5.72;82.00;99725.98;112380;232;169782;-57
2024/04/19 06:13:37;;;;;;;;;26.00;18.50;;;;;5.89;81.85;99720.13;112596;232;40501;-54
2024/04/19 06:16:18;;;;;;;;;21.00;16.67;;;;;6.04;81.72;99720.49;112341;237;169614;-54
2024/04/19 06:18:53;;;;;;;;;24.00;19.00;;;;;6.14;81.96;99722.53;112557;236;39980;-58
2024/04/19 06:21:28;;;;;;;;;27.00;21.33;;;;;6.34;82.38;99719.45;112493;236;170539;-57
2024/04/19 06:24:05;;;;;;;;;21.50;18.00;;;;;6.63;82.46;99714.76;112639;232;40443;-52
2024/04/19 06:26:40;;;;;;;;;23.00;19.00;;;;;7.24;82.44;99709.38;112784;232;41952;-60
2024/04/19 06:29:16;;;;;;;;;23.00;19.00;;;;;7.73;82.29;99700.13;112427;236;169771;-54
2024/04/19 06:31:50;;;;;;;;;22.00;17.25;;;;;7.99;81.43;99697.66;112563;232;39911;-54
2024/04/19 06:34:26;;;;;;;;;23.75;19.00;;;;;7.88;80.51;99693.98;112411;236;169520;-58
2024/04/19 06:37:08;;;;;;;;;20.00;16.50;;;;;7.57;79.85;99693.14;112610;236;40437;-59
2024/04/19 06:39:47;;;;;;;;;24.00;18.50;;;;;7.21;79.40;99690.98;112378;232;169312;-58
2024/04/19 06:42:21;;;;;;;;;19.00;16.00;;;;;7.03;79.34;99691.67;112498;236;40589;-58
2024/04/19 06:44:57;;;;;;;;;18.50;14.50;;;;;6.88;79.73;99692.14;112535;232;41011;-58
2024/04/19 06:47:38;;;;;;;;;21.00;15.25;;;;;6.77;80.30;99687.59;112536;233;40580;-58
2024/04/19 06:50:19;;;;;;;;;17.00;15.00;;;;;6.76;80.56;99685.48;111683;232;1149051;-57
2024/04/19 06:53:03;;;;;;;;;18.00;14.50;;;;;6.82;80.62;99686.06;112401;232;170389;-57
2024/04/19 06:55:41;;;;;;;;;19.33;15.33;;;;;6.79;80.93;99679.83;112538;232;40814;-57
2024/04/19 06:58:15;;;;;;;;;18.00;14.00;;;;;6.93;80.73;99680.08;112422;232;169909;-58
2024/04/19 07:00:52;;;;;;;;;12.00;10.00;;;;;7.00;80.66;99675.48;112623;232;40278;-59
2024/04/19 07:03:29;;;;;;;;;14.00;12.00;;;;;7.02;80.70;99672.16;112401;232;170203;-54
2024/04/19 07:06:12;;;;;;;;;18.00;13.25;;;;;7.16;80.87;99669.33;112496;232;40447;-59
2024/04/19 07:08:53;;;;;;;;;14.33;12.33;;;;;7.30;80.89;99666.54;112559;232;40524;-58
2024/04/19 07:11:36;;;;;;;;;14.00;11.00;;;;;7.31;80.64;99662.88;112484;236;169184;-59
2024/04/19 07:14:14;;;;;;;;;14.00;11.00;;;;;7.31;80.67;99659.47;112553;236;41928;-57
2024/04/19 07:16:54;;;;;;;;;16.67;12.00;;;;;7.38;80.43;99654.50;112349;236;169166;-54
2024/04/19 07:19:31;;;;;;;;;15.00;12.00;;;;;7.45;80.48;99648.72;112530;236;40295;-55
2024/04/19 07:22:08;;;;;;;;;13.00;11.00;;;;;7.61;80.29;99649.23;112340;232;169924;-52
2024/04/19 07:24:44;;;;;;;;;13.00;10.00;;;;;7.72;80.20;99645.23;112517;232;40073;-58
2024/04/19 07:27:20;;;;;;;;;10.00;9.00;;;;;7.89;79.88;99646.84;112331;232;169618;-58
2024/04/19 07:29:59;;;;;;;;;11.00;9.00;;;;;8.02;79.69;99645.06;112556;232;40547;-55
2024/04/19 07:32:36;;;;;;;;;11.50;9.00;;;;;8.14;79.53;99646.23;112484;232;40652;-55
2024/04/19 07:35:10;;;;;;;;;11.00;10.00;;;;;8.13;79.52;99642.35;112349;236;169120;-58
2024/04/19 07:37:50;;;;;;;;;11.75;9.00;;;;;8.11;79.17;99643.38;112523;232;40451;-58
2024/04/19 07:40:25;;;;;;;;;11.00;8.00;;;;;8.26;79.15;99638.20;112332;232;169125;-55
2024/04/19 07:43:12;;;;;;;;;10.33;9.00;;;;;8.70;79.23;99635.36;112485;236;41648;-55
2024/04/19 07:45:47;;;;;;;;;11.00;8.50;;;;;9.21;78.80;99632.19;112360;232;169351;-58
2024/04/19 07:48:22;;;;;;;;;14.00;12.00;;;;;9.72;78.78;99624.63;112501;232;40788;-58
2024/04/19 07:51:06;;;;;;;;;19.00;15.00;;;;;10.18;77.29;99627.90;112558;236;40397;-57
2024/04/19 07:53:43;;;;;;;;;14.00;12.00;;;;;10.40;76.12;99626.56;112485;233;40058;-58
2024/04/19 07:56:17;;;;;;;;;15.00;13.25;;;;;10.41;74.31;99632.21;112550;232;40364;-58
2024/04/19 07:58:56;;;;;;;;;18.00;12.67;;;;;10.24;74.31;99629.13;112389;232;169633;-56
2024/04/19 08:01:37;;;;;;;;;17.00;14.00;;;;;10.02;73.86;99628.23;112543;236;40125;-56
2024/04/19 08:04:14;;;;;;;;;17.00;14.50;;;;;9.78;73.60;99625.97;112453;236;170164;-58
2024/04/19 08:06:48;;;;;;;;;22.00;17.00;;;;;9.55;73.66;99621.11;112603;232;42210;-57
2024/04/19 08:09:28;;;;;;;;;20.50;16.75;;;;;9.61;73.41;99621.34;112446;232;169207;-53
2024/04/19 08:12:10;;;;;;;;;21.00;17.00;;;;;9.72;73.12;99623.16;112688;236;42292;-54
2024/04/19 08:14:44;;;;;;;;;19.00;17.00;;;;;10.38;74.00;99616.83;112515;236;40110;-57
2024/04/19 08:17:25;;;;;;;;;25.33;20.00;;;;;11.05;73.66;99608.92;112488;232;170140;-58
2024/04/19 08:20:03;;;;;;;;;28.00;22.00;;;;;11.14;72.76;99612.48;112572;236;40190;-56
2024/04/19 08:22:40;;;;;;;;;21.00;18.33;;;;;11.33;72.53;99605.84;112465;232;169839;-51
2024/04/19 08:25:15;;;;;;;;;26.00;21.00;;;;;11.47;71.53;99603.39;112614;236;40692;-53
2024/04/19 08:27:49;;;;;;;;;19.00;17.75;;;;;11.77;71.55;99598.34;112434;232;170143;-54
2024/04/19 08:30:23;;;;;;;;;24.00;19.50;;;;;12.50;71.45;99595.64;112640;232;40145;-55
2024/04/19 08:32:58;;;;;;;;;24.50;19.00;;;;;12.56;68.98;99596.55;112581;235;41538;-54
2024/04/19 08:35:42;;;;;;;;;19.00;16.00;;;;;12.15;67.29;99593.48;112415;236;169702;-56
2024/04/19 08:38:26;;;;;;;;;21.00;17.50;;;;;11.61;67.42;99596.22;112586;232;39606;-55
2024/04/19 08:41:08;;;;;;;;;22.00;19.00;;;;;11.20;67.69;99593.79;112424;236;171066;-55
2024/04/19 08:43:47;;;;;;;;;20.67;18.00;;;;;10.90;68.36;99589.38;112514;233;41956;-58
2024/04/19 08:46:27;;;;;;;;;26.00;19.00;;;;;10.89;68.49;99588.83;112455;236;169874;-59
2024/04/19 08:49:05;;;;;;;;;23.00;19.00;;;;;11.12;68.59;99586.25;112636;232;41112;-54
2024/04/19 08:51:46;;;;;;;;;23.00;20.00;;;;;11.64;68.54;99581.34;112438;236;170068;-54
2024/04/19 08:54:22;;;;;;;;;23.00;19.00;;;;;12.44;67.65;99574.09;112671;232;40305;-57
2024/04/19 08:56:59;;;;;;;;;27.00;23.00;;;;;13.79;67.66;99571.09;112547;232;42173;-54
2024/04/19 08:59:35;;;;;;;;;25.00;22.00;;;;;14.88;64.98;99567.34;112431;233;170216;-57
2024/04/19 09:02:09;;;;;;;;;21.00;18.50;;;;;15.40;64.84;99566.96;112582;232;40923;-57
2024/04/19 09:04:54;;;;;;;;;22.00;20.00;;;;;16.06;64.36;99569.54;112460;232;170048;-57
2024/04/19 09:07:32;;;;;;;;;22.50;19.50;;;;;15.69;62.26;99568.30;112551;232;40345;-56
2024/04/19 09:10:13;;;;;;;;;21.50;18.25;;;;;15.30;61.02;99568.17;112437;236;169970;-58
2024/04/19 09:12:50;;;;;;;;;22.00;18.00;;;;;14.53;60.96;99571.95;112595;232;40626;-58
2024/04/19 09:15:30;;;;;;;;;21.00;17.67;;;;;13.83;61.19;99569.08;112502;232;169900;-58
2024/04/19 09:18:09;;;;;;;;;22.67;20.00;;;;;13.24;61.52;99572.62;112635;232;41655;-56
2024/04/19 09:20:49;;;;;;;;;21.50;17.50;;;;;12.96;62.23;99574.52;112576;232;40193;-54
2024/04/19 09:23:35;;;;;;;;;20.00;17.33;;;;;13.35;62.09;99566.39;112478;236;169896;-56
2024/04/19 09:26:13;;;;;;;;;19.00;16.50;;;;;13.64;60.89;99552.54;112592;232;40656;-55
2024/04/19 09:28:47;;;;;;;;;17.00;14.00;;;;;13.94;61.44;99551.14;112430;232;169900;-57
2024/04/19 09:31:25;;;;;;;;;17.00;14.67;;;;;14.40;59.69;99543.48;112593;232;40121;-58
2024/04/19 09:34:05;;;;;;;;;17.00;16.00;;;;;14.64;59.90;99544.71;112418;233;170527;-53
2024/04/19 09:36:49;;;;;;;;;15.50;13.00;;;;;14.69;59.38;99540.59;112612;232;40753;-53
2024/04/19 09:39:25;;;;;;;;;14.00;12.00;;;;;14.41;59.48;99545.89;112430;232;169789;-57
2024/04/19 09:42:02;;;;;;;;;10.33;9.67;;;;;14.11;58.38;99538.00;112620;236;40452;-57
2024/04/19 09:44:41;;;;;;;;;11.00;10.00;;;;;13.81;57.73;99536.92;112632;236;41248;-56
2024/04/19 09:47:32;;;;;;;;;12.00;10.00;;;;;13.56;57.55;99537.73;112405;233;169811;-55
2024/04/19 09:50:12;;;;;;;;;12.00;11.00;;;;;13.39;57.65;99531.23;112624;232;40810;-54
2024/04/19 09:52:56;;;;;;;;;14.00;12.00;;;;;13.25;57.21;99528.66;112407;233;169441;-54
2024/04/19 09:55:42;;;;;;;;;12.50;11.00;;;;;12.92;57.08;99536.07;112602;232;40833;-58
2024/04/19 09:58:18;;;;;;;;;10.67;9.67;;;;;12.48;57.66;99524.94;112381;232;169721;-56
2024/04/19 10:00:58;;;;;;;;;16.00;14.00;;;;;12.77;58.47;99519.55;112744;232;40681;-55
2024/04/19 10:03:36;;;;;;;;;14.33;12.67;;;;;12.82;58.35;99512.13;112719;232;170197;-58
2024/04/19 10:06:13;;;;;;;;;13.00;12.00;;;;;13.26;58.83;99504.48;112470;236;41623;-56
2024/04/19 10:08:49;;;;;;;;;13.75;11.75;;;;;13.70;58.63;99501.59;112595;232;40658;-55
2024/04/19 10:11:26;;;;;;;;;13.00;11.00;;;;;13.72;58.14;99501.80;112686;232;169728;-56
2024/04/19 10:14:07;;;;;;;;;11.25;9.50;;;;;13.60;56.95;99495.02;112947;235;40477;-60
2024/04/19 10:16:48;;;;;;;;;9.00;8.33;;;;;13.21;56.33;99484.06;112577;232;169540;-60
2024/04/19 10:19:30;;;;;;;;;9.00;8.33;;;;;12.76;54.98;99489.29;112599;236;40792;-55
2024/04/19 10:22:06;;;;;;;;;13.00;10.50;;;;;12.26;55.92;99500.26;112407;236;169195;-54
2024/04/19 10:24:40;;;;;;;;;12.00;10.00;;;;;12.21;56.74;99493.64;112589;232;40325;-57
2024/04/19 10:27:18;;;;;;;;;10.00;9.00;;;;;12.44;56.91;99482.88;112575;232;41317;-58
2024/04/19 10:29:55;;;;;;;;;8.00;7.00;;;;;13.06;56.85;99473.31;112614;232;41407;-58
2024/04/19 10:32:37;;;;;;;;;9.00;8.00;;;;;13.41;55.89;99472.98;112623;232;40590;-58
2024/04/19 10:35:18;;;;;;;;;7.00;6.00;;;;;13.47;55.14;99469.10;112595;235;169715;-55
2024/04/19 10:37:57;;;;;;;;;8.00;7.33;;;;;13.45;54.18;99465.96;112535;232;40374;-54
2024/04/19 10:40:37;;;;;;;;;9.00;7.00;;;;;13.10;54.27;99468.90;112418;236;169288;-57
2024/04/19 10:43:12;;;;;;;;;6.00;5.00;;;;;12.85;53.65;99467.17;112590;236;39695;-58
2024/04/19 10:45:54;;;;;;;;;6.00;6.00;;;;;12.74;54.12;99465.75;112488;232;170100;-58
2024/04/19 10:48:31;;;;;;;;;6.00;5.00;;;;;13.01;54.33;99460.85;112886;235;39929;-59
2024/04/19 10:51:10;;;;;;;;;7.00;6.00;;;;;13.21;53.76;99460.13;112943;235;40668;-59
2024/04/19 10:53:48;;;;;;;;;6.00;5.00;;;;;13.32;52.92;99460.29;112391;232;169158;-53
2024/04/19 10:56:26;;;;;;;;;7.00;6.00;;;;;13.04;52.68;99463.61;112552;232;40339;-53
2024/04/19 10:59:00;;;;;;;;;7.00;6.00;;;;;12.90;52.84;99460.66;112372;233;169634;-60
2024/04/19 11:01:41;;;;;;;;;6.00;4.00;;;;;12.79;52.81;99463.42;112571;232;40376;-54
2024/04/19 11:04:22;;;;;;;;;5.00;4.00;;;;;12.69;53.11;99457.39;112424;232;169705;-56
2024/04/19 11:06:56;;;;;;;;;6.00;5.00;;;;;13.00;53.42;99450.69;112559;232;39663;-55
2024/04/19 11:09:31;;;;;;;;;6.00;6.00;;;;;13.34;53.11;99447.50;112433;232;169648;-55
2024/04/19 11:12:07;;;;;;;;;5.00;5.00;;;;;13.11;52.45;99441.38;112578;232;40293;-54
2024/04/19 11:14:43;;;;;;;;;5.67;5.00;;;;;12.69;52.43;99440.39;112540;232;41032;-58
2024/04/19 11:17:22;;;;;;;;;4.67;4.00;;;;;12.45;52.13;99444.95;112348;232;169468;-59
2024/04/19 11:19:59;;;;;;;;;4.00;3.33;;;;;12.35;52.08;99440.05;112495;232;41768;-56
2024/04/19 11:22:37;;;;;;;;;5.00;5.00;;;;;12.24;51.50;99440.71;112404;232;169334;-56
2024/04/19 11:25:14;;;;;;;;;4.00;4.00;;;;;12.18;52.04;99434.06;112520;232;40541;-54
2024/04/19 11:27:55;;;;;;;;;4.00;4.00;;;;;12.21;52.22;99432.77;112407;236;169421;-55
2024/04/19 11:30:40;;;;;;;;;3.00;3.00;;;;;12.45;51.97;99416.33;112620;236;40333;-58
2024/04/19 11:33:16;;;;;;;;;6.00;5.00;;;;;12.65;51.86;99415.01;112659;236;40258;-55
2024/04/19 11:35:50;;;;;;;;;5.00;4.00;;;;;12.81;51.63;99410.02;112474;236;40281;-55
2024/04/19 11:38:27;;;;;;;;;6.00;5.00;;;;;12.88;50.99;99407.67;112567;232;40058;-55
2024/04/19 11:41:11;;;;;;;;;5.00;3.00;;;;;13.05;51.52;99408.05;112501;232;169129;-56
2024/04/19 11:43:45;;;;;;;;;5.00;4.00;;;;;13.15;51.40;99403.85;112586;232;40584;-58
2024/04/19 11:46:27;;;;;;;;;3.75;3.75;;;;;13.15;51.15;99398.52;112544;232;169452;-58
2024/04/19 11:49:04;;;;;;;;;5.00;4.67;;;;;13.31;51.37;99398.19;112919;235;40165;-56
2024/04/19 11:51:45;;;;;;;;;4.00;3.00;;;;;13.41;51.11;99393.52;112768;235;169456;-59
2024/04/19 11:54:27;;;;;;;;;4.00;4.00;;;;;13.37;50.88;99389.79;112599;232;41236;-58
2024/04/19 11:57:07;;;;;;;;;5.00;4.00;;;;;13.25;50.81;99387.66;112604;232;42423;-56
2024/04/19 11:59:44;;;;;;;;;4.00;4.00;;;;;13.24;50.43;99384.05;112479;236;169932;-58
2024/04/19 12:02:21;;;;;;;;;6.00;5.00;;;;;13.17;50.27;99386.82;112643;232;41687;-57
2024/04/19 12:04:59;;;;;;;;;4.67;4.00;;;;;13.05;50.40;99387.42;112523;232;168900;-58
2024/04/19 12:07:36;;;;;;;;;5.50;5.00;;;;;12.93;50.18;99388.58;112657;232;41296;-58
2024/04/19 12:10:11;;;;;;;;;4.00;4.00;;;;;12.95;50.61;99384.02;112479;233;169320;-58
2024/04/19 12:12:51;;;;;;;;;5.00;5.00;;;;;13.06;50.66;99384.80;112928;232;40335;-61
2024/04/19 12:15:25;;;;;;;;;3.67;3.00;;;;;12.93;50.49;99384.61;112781;232;170047;-57
2024/04/19 12:18:05;;;;;;;;;7.00;5.00;;;;;12.83;50.23;99384.34;112656;232;40511;-56
2024/04/19 12:20:41;;;;;;;;;4.00;4.00;;;;;12.82;50.02;99382.44;112502;232;40463;-55